Search for airport 
image banner adimage banner adimage banner ad
image banner ad

59L - Van Nuys

Located in Los Angeles, United States

ICAO - 59L, IATA -

Data provided by Airmate  

General information

Coordinates: N34°3'11" W118°14'30"
Elevation is 360 feet MSL.
Magnetic variation is 14° East
View others Airports in California

Operational data

Special qualification required
Current time UTC:
Current local time:
METAR: KHHR 240853Z AUTO 25004KT 10SM CLR 17/13 A3000 RMK AO2 SLP156 T01670133 58004
View NOTAMs / SUP AIP / TFR affecting this airport [VIEW]
Communications frequencies: [VIEW]

Runways:

Airport contact information

Address: Los Angeles United States

Satellite view of 59L